createdAt,value
2018-05-04T00:00:41.803Z,12.10
2018-05-04T00:03:09.256Z,12.10
2018-05-04T00:05:36.688Z,12.10
2018-05-04T00:08:04.137Z,12.10
2018-05-04T00:10:31.581Z,12.10
2018-05-04T00:12:59.801Z,12.00
2018-05-04T00:15:27.245Z,12.00
2018-05-04T00:17:54.681Z,12.00
2018-05-04T00:20:22.142Z,12.00
2018-05-04T00:22:49.576Z,12.00
2018-05-04T00:25:17.888Z,12.00
2018-05-04T00:27:45.332Z,12.00
2018-05-04T00:30:12.771Z,12.00
2018-05-04T00:32:40.208Z,12.00
2018-05-04T00:35:08.426Z,11.90
2018-05-04T00:37:35.857Z,11.90
2018-05-04T00:40:03.300Z,12.00
2018-05-04T00:42:31.500Z,11.90
2018-05-04T00:44:58.948Z,11.90
2018-05-04T00:47:26.384Z,11.90
2018-05-04T00:49:54.598Z,11.90
2018-05-04T00:52:22.051Z,11.90
2018-05-04T00:54:49.498Z,11.90
2018-05-04T00:57:16.936Z,11.90
2018-05-04T00:59:44.392Z,11.90
2018-05-04T01:02:11.837Z,11.80
2018-05-04T01:04:40.055Z,11.80
2018-05-04T01:07:07.498Z,11.80
2018-05-04T01:09:34.940Z,11.80
2018-05-04T01:12:02.387Z,11.80
2018-05-04T01:14:29.854Z,11.80
2018-05-04T01:16:57.288Z,11.70
2018-05-04T01:19:25.510Z,11.70
2018-05-04T01:21:52.952Z,11.70
2018-05-04T01:24:20.401Z,11.70
2018-05-04T01:26:47.831Z,11.70
2018-05-04T01:29:16.044Z,11.70
2018-05-04T01:31:43.475Z,11.60
2018-05-04T01:34:10.925Z,11.60
2018-05-04T01:36:38.377Z,11.60
2018-05-04T01:39:05.807Z,11.60
2018-05-04T01:41:34.026Z,11.60
2018-05-04T01:44:01.457Z,11.60
2018-05-04T01:46:28.914Z,11.60
2018-05-04T01:48:56.347Z,11.50
2018-05-04T01:51:24.559Z,11.50
2018-05-04T01:53:52.003Z,11.50
2018-05-04T01:56:19.454Z,11.50
2018-05-04T01:58:46.887Z,11.50
2018-05-04T02:01:15.105Z,11.40
2018-05-04T02:03:42.547Z,11.40
2018-05-04T02:06:10.006Z,11.40
2018-05-04T02:08:37.453Z,11.40
2018-05-04T02:11:04.916Z,11.40
2018-05-04T02:13:32.417Z,11.40
2018-05-04T02:15:59.857Z,11.40
2018-05-04T02:18:27.306Z,11.40
2018-05-04T02:20:54.749Z,11.40
2018-05-04T02:23:22.194Z,11.30
2018-05-04T02:25:49.656Z,11.30
2018-05-04T02:28:17.092Z,11.20
2018-05-04T02:30:44.566Z,11.20
2018-05-04T02:33:12.003Z,11.20
2018-05-04T02:35:39.462Z,11.20
2018-05-04T02:38:06.928Z,11.10
2018-05-04T02:40:34.392Z,11.10
2018-05-04T02:43:01.843Z,11.10
2018-05-04T02:45:29.307Z,11.10
2018-05-04T02:47:56.750Z,11.10
2018-05-04T02:50:24.185Z,11.10
2018-05-04T02:52:52.400Z,11.00
2018-05-04T02:55:19.857Z,11.00
2018-05-04T02:57:47.310Z,11.00
2018-05-04T03:00:14.755Z,11.00
2018-05-04T03:02:42.215Z,11.00
2018-05-04T03:05:09.665Z,11.00
2018-05-04T03:07:37.122Z,11.00
2018-05-04T03:10:04.553Z,11.10
2018-05-04T03:12:32.758Z,11.10
2018-05-04T03:15:00.196Z,11.00
2018-05-04T03:17:27.644Z,11.10
2018-05-04T03:19:55.085Z,11.10
2018-05-04T03:22:22.528Z,11.00
2018-05-04T03:24:50.742Z,11.00
2018-05-04T03:27:18.198Z,11.00
2018-05-04T03:29:45.657Z,11.00
2018-05-04T03:32:13.106Z,11.00
2018-05-04T03:34:40.560Z,11.00
2018-05-04T03:37:08.004Z,11.00
2018-05-04T03:39:35.448Z,11.00
2018-05-04T03:42:02.976Z,11.00
2018-05-04T03:44:31.322Z,11.00
2018-05-04T03:46:58.752Z,11.00
2018-05-04T03:49:26.204Z,11.00
2018-05-04T03:51:53.660Z,11.00
2018-05-04T03:54:21.109Z,11.00
2018-05-04T03:56:49.334Z,11.00
2018-05-04T03:59:28.647Z,11.00
2018-05-04T04:02:08.084Z,11.00
2018-05-04T04:04:35.528Z,11.10
2018-05-04T04:07:02.978Z,11.10
2018-05-04T04:09:30.417Z,11.10
2018-05-04T04:11:57.872Z,11.10
2018-05-04T04:14:25.317Z,11.10
2018-05-04T04:16:53.529Z,11.20
2018-05-04T04:19:20.982Z,11.10
2018-05-04T04:21:48.424Z,11.20
2018-05-04T04:24:15.863Z,11.20
2018-05-04T04:26:43.318Z,11.20
2018-05-04T04:29:10.837Z,11.20
2018-05-04T04:31:38.481Z,11.20
2018-05-04T04:34:05.937Z,11.20
2018-05-04T04:36:33.420Z,11.20
2018-05-04T04:39:00.935Z,11.20
2018-05-04T04:41:28.375Z,11.20
2018-05-04T04:43:55.848Z,11.20
2018-05-04T04:46:23.290Z,11.20
2018-05-04T04:48:50.731Z,11.20
2018-05-04T04:51:18.190Z,11.20
2018-05-04T04:53:45.635Z,11.20
2018-05-04T04:56:13.141Z,11.20
2018-05-04T04:58:50.057Z,11.20
2018-05-04T05:01:17.518Z,11.20
2018-05-04T05:03:45.742Z,11.20
2018-05-04T05:06:13.182Z,11.20
2018-05-04T05:08:40.639Z,11.20
2018-05-04T05:11:08.081Z,11.20
2018-05-04T05:13:35.596Z,11.20
2018-05-04T05:16:02.991Z,11.20
2018-05-04T05:18:30.432Z,11.20
2018-05-04T05:20:58.645Z,11.20
2018-05-04T05:23:26.108Z,11.20
2018-05-04T05:25:53.549Z,11.30
2018-05-04T05:28:21.009Z,11.30
2018-05-04T05:30:48.463Z,11.30
2018-05-04T05:33:15.909Z,11.30
2018-05-04T05:35:43.350Z,11.30
2018-05-04T05:38:10.814Z,11.40
2018-05-04T05:40:38.251Z,11.40
2018-05-04T05:43:05.695Z,11.40
2018-05-04T05:45:33.893Z,11.40
2018-05-04T05:48:01.346Z,11.40
2018-05-04T05:50:28.794Z,11.40
2018-05-04T05:52:56.246Z,11.40
2018-05-04T05:55:23.692Z,11.40
2018-05-04T05:57:51.933Z,11.40
2018-05-04T06:00:19.376Z,11.40
2018-05-04T06:02:51.280Z,11.40
2018-05-04T06:05:19.486Z,11.40
2018-05-04T06:07:46.939Z,11.40
2018-05-04T06:10:14.397Z,11.40
2018-05-04T06:12:41.849Z,11.40
2018-05-04T06:15:09.520Z,11.40
2018-05-04T06:17:36.752Z,11.40
2018-05-04T06:20:04.205Z,11.40
2018-05-04T06:22:31.651Z,11.40
2018-05-04T06:24:59.930Z,11.40
2018-05-04T06:27:27.317Z,11.50
2018-05-04T06:29:54.772Z,11.50
2018-05-04T06:32:22.980Z,11.50
2018-05-04T06:34:50.429Z,11.50
2018-05-04T06:37:17.865Z,11.50
2018-05-04T06:39:45.372Z,11.60
2018-05-04T06:42:12.773Z,11.60
2018-05-04T06:44:40.228Z,11.70
2018-05-04T06:47:07.668Z,11.70
2018-05-04T06:49:35.121Z,11.70
2018-05-04T06:52:02.591Z,11.70
2018-05-04T06:54:30.054Z,11.80
2018-05-04T06:56:57.538Z,11.80
2018-05-04T06:59:25.810Z,11.80
2018-05-04T07:01:53.218Z,11.80
2018-05-04T07:04:20.684Z,11.90
2018-05-04T07:06:48.115Z,11.90
2018-05-04T07:09:15.578Z,11.90
2018-05-04T07:11:43.009Z,11.90
2018-05-04T07:14:11.229Z,12.00
2018-05-04T07:16:38.672Z,12.00
2018-05-04T07:19:06.129Z,12.00
2018-05-04T07:21:33.577Z,12.10
2018-05-04T07:24:01.020Z,12.10
2018-05-04T07:26:28.469Z,12.20
2018-05-04T07:28:56.678Z,12.30
2018-05-04T07:31:24.130Z,12.30
2018-05-04T07:33:51.595Z,12.40
2018-05-04T07:36:19.043Z,12.40
2018-05-04T07:38:46.474Z,12.40
2018-05-04T07:41:13.923Z,12.50
2018-05-04T07:43:41.377Z,12.50
2018-05-04T07:46:08.828Z,12.50
2018-05-04T07:48:36.325Z,12.50
2018-05-04T07:51:04.486Z,12.60
2018-05-04T07:53:31.928Z,12.60
2018-05-04T07:55:59.384Z,12.60
2018-05-04T07:58:26.825Z,12.70
2018-05-04T08:00:54.288Z,12.70
2018-05-04T08:03:21.727Z,12.70
2018-05-04T08:05:49.938Z,12.70
2018-05-04T08:08:17.389Z,12.70
2018-05-04T08:10:44.829Z,12.80
2018-05-04T08:13:12.264Z,12.80
2018-05-04T08:15:40.490Z,12.80
2018-05-04T08:18:07.929Z,12.80
2018-05-04T08:20:35.385Z,12.80
2018-05-04T08:23:02.828Z,12.90
2018-05-04T08:25:30.276Z,12.90
2018-05-04T08:27:57.719Z,12.90
2018-05-04T08:30:25.173Z,12.90
2018-05-04T08:32:53.373Z,13.00
2018-05-04T08:35:20.928Z,13.00
2018-05-04T08:37:48.268Z,13.10
2018-05-04T08:40:15.718Z,13.10
2018-05-04T08:42:43.158Z,13.20
2018-05-04T08:45:11.375Z,13.30
2018-05-04T08:47:38.815Z,13.20
2018-05-04T08:50:06.260Z,13.30
2018-05-04T08:52:33.712Z,13.40
2018-05-04T08:55:01.161Z,13.40
2018-05-04T08:57:29.388Z,13.50
2018-05-04T08:59:56.829Z,13.50
2018-05-04T09:02:24.266Z,13.60
2018-05-04T09:04:51.721Z,13.60
2018-05-04T09:07:19.162Z,13.70
2018-05-04T09:09:46.600Z,13.70
2018-05-04T09:12:14.816Z,13.80
2018-05-04T09:14:42.268Z,13.80
2018-05-04T09:17:09.722Z,13.90
2018-05-04T09:19:37.172Z,13.90
2018-05-04T09:22:04.612Z,13.90
2018-05-04T09:24:32.065Z,13.90
2018-05-04T09:26:59.530Z,13.90
2018-05-04T09:29:26.981Z,13.90
2018-05-04T09:31:54.435Z,14.00
2018-05-04T09:34:21.881Z,14.00
2018-05-04T09:36:50.107Z,14.00
2018-05-04T09:39:17.539Z,14.00
2018-05-04T09:41:44.988Z,14.10
2018-05-04T09:44:12.519Z,14.10
2018-05-04T09:46:39.884Z,14.10
2018-05-04T09:49:07.500Z,14.20
2018-05-04T09:51:35.538Z,14.20
2018-05-04T09:54:02.973Z,14.20
2018-05-04T09:56:30.442Z,14.20
2018-05-04T09:58:57.881Z,14.20
2018-05-04T10:01:25.341Z,14.20
2018-05-04T10:03:52.782Z,14.20
2018-05-04T10:06:21.018Z,14.30
2018-05-04T10:08:48.462Z,14.20
2018-05-04T10:11:15.913Z,14.20
2018-05-04T10:13:43.362Z,14.30
2018-05-04T10:16:10.883Z,14.30
2018-05-04T10:18:38.255Z,14.30
2018-05-04T10:21:05.715Z,14.30
2018-05-04T10:23:33.159Z,14.30
2018-05-04T10:26:00.593Z,14.30
2018-05-04T10:28:28.813Z,14.40
2018-05-04T10:30:56.262Z,14.40
2018-05-04T10:33:23.710Z,14.40
2018-05-04T10:35:51.923Z,14.50
2018-05-04T10:38:19.572Z,14.40
2018-05-04T10:40:46.813Z,14.50
2018-05-04T10:43:14.260Z,14.50
2018-05-04T10:45:41.749Z,14.60
2018-05-04T10:48:10.447Z,14.60
2018-05-04T10:50:38.663Z,14.80
2018-05-04T10:53:06.120Z,14.80
2018-05-04T10:55:33.565Z,14.80
2018-05-04T10:58:01.031Z,14.80
2018-05-04T11:00:28.480Z,14.80
2018-05-04T11:02:55.941Z,14.90
2018-05-04T11:05:23.462Z,14.90
2018-05-04T11:07:50.841Z,14.90
2018-05-04T11:10:18.297Z,14.90
2018-05-04T11:12:45.759Z,14.90
2018-05-04T11:15:13.273Z,14.90
2018-05-04T11:17:40.708Z,14.90
2018-05-04T11:20:08.144Z,14.90
2018-05-04T11:22:35.594Z,14.90
2018-05-04T11:25:03.132Z,15.00
2018-05-04T11:27:30.585Z,15.00
2018-05-04T11:29:58.096Z,15.00
2018-05-04T11:32:25.548Z,15.10
2018-05-04T11:34:52.996Z,15.10
2018-05-04T11:37:20.457Z,15.20
2018-05-04T11:39:47.909Z,15.20
2018-05-04T11:42:15.364Z,15.30
2018-05-04T11:44:42.817Z,15.30
2018-05-04T11:47:10.289Z,15.40
2018-05-04T11:49:37.788Z,15.50
2018-05-04T11:52:05.218Z,15.50
2018-05-04T11:54:33.459Z,15.50
2018-05-04T11:57:00.906Z,15.50
2018-05-04T11:59:28.366Z,15.50
2018-05-04T12:01:55.923Z,15.60
2018-05-04T12:04:23.364Z,15.60
2018-05-04T12:06:50.811Z,15.70
2018-05-04T12:09:18.287Z,15.70
2018-05-04T12:11:45.758Z,15.80
2018-05-04T12:14:13.208Z,15.90
2018-05-04T12:16:40.660Z,16.00
2018-05-04T12:19:08.093Z,15.90
2018-05-04T12:21:35.543Z,16.00
2018-05-04T12:24:03.037Z,16.10
2018-05-04T12:26:30.524Z,16.10
2018-05-04T12:28:57.990Z,16.20
2018-05-04T12:31:25.429Z,16.20
2018-05-04T12:33:53.639Z,16.30
2018-05-04T12:36:21.322Z,16.20
2018-05-04T12:38:48.768Z,16.30
2018-05-04T12:41:16.242Z,16.30
2018-05-04T12:43:43.693Z,16.30
2018-05-04T12:46:11.157Z,16.40
2018-05-04T12:48:38.597Z,16.40
2018-05-04T12:51:06.051Z,16.40
2018-05-04T12:53:33.584Z,16.40
2018-05-04T12:56:00.945Z,16.50
2018-05-04T12:58:28.420Z,16.50
2018-05-04T13:00:56.621Z,16.50
2018-05-04T13:03:24.079Z,16.40
2018-05-04T13:05:51.554Z,16.40
2018-05-04T13:08:19.031Z,16.30
2018-05-04T13:10:46.481Z,16.30
2018-05-04T13:13:13.924Z,16.30
2018-05-04T13:15:42.132Z,16.30
2018-05-04T13:18:09.623Z,16.30
2018-05-04T13:20:37.121Z,16.30
2018-05-04T13:23:05.322Z,16.30
2018-05-04T13:25:32.769Z,16.30
2018-05-04T13:28:00.221Z,16.30
2018-05-04T13:30:27.670Z,16.30
2018-05-04T13:32:55.112Z,16.40
2018-05-04T13:35:22.573Z,16.40
2018-05-04T13:37:50.042Z,16.40
2018-05-04T13:40:17.509Z,16.50
2018-05-04T13:42:44.957Z,16.60
2018-05-04T13:45:12.412Z,16.70
2018-05-04T13:47:39.859Z,16.70
2018-05-04T13:50:07.301Z,16.80
2018-05-04T13:52:34.733Z,16.80
2018-05-04T13:55:02.960Z,16.70
2018-05-04T13:57:30.404Z,16.70
2018-05-04T13:59:57.860Z,16.60
2018-05-04T14:02:25.372Z,16.60
2018-05-04T14:04:52.814Z,16.50
2018-05-04T14:07:20.289Z,16.60
2018-05-04T14:09:48.510Z,16.50
2018-05-04T14:12:15.955Z,16.50
2018-05-04T14:14:43.414Z,16.50
2018-05-04T14:17:10.848Z,16.50
2018-05-04T14:19:38.300Z,16.60
2018-05-04T14:22:05.739Z,16.60
2018-05-04T14:24:33.952Z,16.60
2018-05-04T14:27:01.388Z,16.60
2018-05-04T14:29:28.846Z,16.60
2018-05-04T14:31:56.277Z,16.60
2018-05-04T14:34:24.531Z,16.80
2018-05-04T14:36:51.963Z,16.80
2018-05-04T14:39:19.429Z,17.00
2018-05-04T14:41:46.862Z,17.00
2018-05-04T14:44:14.298Z,17.30
2018-05-04T14:46:41.745Z,17.40
2018-05-04T14:49:09.184Z,17.50
2018-05-04T14:51:37.404Z,17.20
2018-05-04T14:54:04.843Z,17.20
2018-05-04T14:56:32.287Z,17.10
2018-05-04T14:58:59.728Z,17.10
2018-05-04T15:01:27.938Z,17.00
2018-05-04T15:03:55.444Z,16.90
2018-05-04T15:06:22.846Z,16.90
2018-05-04T15:08:50.291Z,16.90
2018-05-04T15:11:17.968Z,16.80
2018-05-04T15:13:45.417Z,16.80
2018-05-04T15:16:12.877Z,16.80
2018-05-04T15:18:40.330Z,16.70
2018-05-04T15:21:07.771Z,16.70
2018-05-04T15:23:35.219Z,16.70
2018-05-04T15:26:02.676Z,16.70
2018-05-04T15:28:30.126Z,16.70
2018-05-04T15:30:57.594Z,16.70
2018-05-04T15:33:25.044Z,16.70
2018-05-04T15:35:52.506Z,16.70
2018-05-04T15:38:19.993Z,16.70
2018-05-04T15:40:47.450Z,16.70
2018-05-04T15:43:14.888Z,16.60
2018-05-04T15:45:42.367Z,16.60
2018-05-04T15:48:15.463Z,16.60
2018-05-04T15:50:48.717Z,16.60
2018-05-04T15:53:16.175Z,16.60
2018-05-04T15:55:43.649Z,16.60
2018-05-04T15:58:11.102Z,16.60
2018-05-04T16:00:38.553Z,16.60
2018-05-04T16:03:05.996Z,16.60
2018-05-04T16:05:33.456Z,16.70
2018-05-04T16:08:00.943Z,16.70
2018-05-04T16:10:28.393Z,16.80
2018-05-04T16:12:55.867Z,16.70
2018-05-04T16:15:23.305Z,16.70
2018-05-04T16:17:50.739Z,16.60
2018-05-04T16:20:18.184Z,16.60
2018-05-04T16:22:45.644Z,16.60
2018-05-04T16:25:13.076Z,16.60
2018-05-04T16:27:40.534Z,16.50
2018-05-04T16:30:07.987Z,16.50
2018-05-04T16:32:35.459Z,16.50
2018-05-04T16:35:02.889Z,16.40
2018-05-04T16:37:31.111Z,16.40
2018-05-04T16:39:58.653Z,16.40
2018-05-04T16:42:26.097Z,16.40
2018-05-04T16:44:53.665Z,16.40
2018-05-04T16:47:22.935Z,16.40
2018-05-04T16:49:51.223Z,16.30
2018-05-04T16:52:18.674Z,16.30
2018-05-04T16:54:46.114Z,16.30
2018-05-04T16:57:14.333Z,16.30
2018-05-04T16:59:41.809Z,16.20
2018-05-04T17:02:09.270Z,16.20
2018-05-04T17:04:36.713Z,16.20
2018-05-04T17:07:04.236Z,16.20
2018-05-04T17:09:31.657Z,16.10
2018-05-04T17:11:59.893Z,16.10
2018-05-04T17:14:27.327Z,16.10
2018-05-04T17:16:54.777Z,16.10
2018-05-04T17:19:22.212Z,16.10
2018-05-04T17:21:49.669Z,16.10
2018-05-04T17:24:17.150Z,16.00
2018-05-04T17:26:44.605Z,16.00
2018-05-04T17:29:12.060Z,16.00
2018-05-04T17:31:39.516Z,16.00
2018-05-04T17:34:07.044Z,16.00
2018-05-04T17:36:34.409Z,16.00
2018-05-04T17:39:01.853Z,16.00
2018-05-04T17:41:30.063Z,15.90
2018-05-04T17:43:57.501Z,15.90
2018-05-04T17:46:24.958Z,15.90
2018-05-04T17:48:52.404Z,15.90
2018-05-04T17:51:19.862Z,15.90
2018-05-04T17:53:47.299Z,15.90
2018-05-04T17:56:15.508Z,15.90
2018-05-04T17:58:42.957Z,15.90
2018-05-04T18:01:10.468Z,15.90
2018-05-04T18:03:37.850Z,15.90
2018-05-04T18:06:05.286Z,15.80
2018-05-04T18:08:33.511Z,15.80
2018-05-04T18:11:00.958Z,15.80
2018-05-04T18:13:28.409Z,15.80
2018-05-04T18:15:55.854Z,15.80
2018-05-04T18:18:24.247Z,15.80
2018-05-04T18:20:51.683Z,15.70
2018-05-04T18:23:19.135Z,15.70
2018-05-04T18:25:46.564Z,15.70
2018-05-04T18:28:14.790Z,15.70
2018-05-04T18:30:42.220Z,15.70
2018-05-04T18:33:10.411Z,15.70
2018-05-04T18:35:37.868Z,15.70
2018-05-04T18:38:05.391Z,15.70
2018-05-04T18:40:33.600Z,15.70
2018-05-04T18:43:01.058Z,15.70
2018-05-04T18:45:28.503Z,15.70
2018-05-04T18:47:55.939Z,15.70
2018-05-04T18:50:23.415Z,15.70
2018-05-04T18:52:50.850Z,15.70
2018-05-04T18:55:18.296Z,15.70
2018-05-04T18:57:46.513Z,15.60
2018-05-04T19:00:13.959Z,15.60
2018-05-04T19:02:47.110Z,15.60
2018-05-04T19:05:15.307Z,15.50
2018-05-04T19:07:42.753Z,15.50
2018-05-04T19:10:10.188Z,15.50
2018-05-04T19:12:38.414Z,15.40
2018-05-04T19:15:05.869Z,15.40
2018-05-04T19:17:33.318Z,15.40
2018-05-04T19:20:00.775Z,15.40
2018-05-04T19:22:28.212Z,15.40
2018-05-04T19:24:55.670Z,15.30
2018-05-04T19:27:23.108Z,15.30
2018-05-04T19:29:50.579Z,15.30
2018-05-04T19:32:18.010Z,15.30
2018-05-04T19:34:46.236Z,15.20
2018-05-04T19:37:13.696Z,15.20
2018-05-04T19:39:41.143Z,15.20
2018-05-04T19:42:09.380Z,15.20
2018-05-04T19:44:36.797Z,15.20
2018-05-04T19:47:04.282Z,15.20
2018-05-04T19:49:32.493Z,15.10
2018-05-04T19:51:59.937Z,15.10
2018-05-04T19:54:27.389Z,15.10
2018-05-04T19:56:54.830Z,15.10
2018-05-04T19:59:22.300Z,15.10
2018-05-04T20:01:49.735Z,15.10
2018-05-04T20:04:17.952Z,15.00
2018-05-04T20:06:45.394Z,15.00
2018-05-04T20:09:12.854Z,15.00
2018-05-04T20:11:40.292Z,15.00
2018-05-04T20:14:07.748Z,15.00
2018-05-04T20:16:35.180Z,15.00
2018-05-04T20:19:03.483Z,14.90
2018-05-04T20:21:30.871Z,14.90
2018-05-04T20:23:58.312Z,14.90
2018-05-04T20:26:26.741Z,14.90
2018-05-04T20:28:54.239Z,14.90
2018-05-04T20:31:21.676Z,14.90
2018-05-04T20:33:49.126Z,14.90
2018-05-04T20:36:16.576Z,14.80
2018-05-04T20:38:44.029Z,14.80
2018-05-04T20:41:11.466Z,14.80
2018-05-04T20:43:39.693Z,14.80
2018-05-04T20:46:07.134Z,14.80
2018-05-04T20:48:34.582Z,14.80
2018-05-04T20:51:02.060Z,14.80
2018-05-04T20:53:29.490Z,14.70
2018-05-04T20:55:56.947Z,14.70
2018-05-04T20:58:24.384Z,14.70
2018-05-04T21:00:52.610Z,14.70
2018-05-04T21:03:20.070Z,14.60
2018-05-04T21:05:47.513Z,14.60
2018-05-04T21:08:14.952Z,14.60
2018-05-04T21:10:42.406Z,14.60
2018-05-04T21:13:09.863Z,14.50
2018-05-04T21:15:37.323Z,14.50
2018-05-04T21:18:04.752Z,14.50
2018-05-04T21:20:32.195Z,14.40
2018-05-04T21:23:00.406Z,14.40
2018-05-04T21:25:27.851Z,14.40
2018-05-04T21:27:55.285Z,14.40
2018-05-04T21:30:23.518Z,14.30
2018-05-04T21:32:50.959Z,14.30
2018-05-04T21:35:18.412Z,14.30
2018-05-04T21:37:45.863Z,14.30
2018-05-04T21:40:13.331Z,14.20
2018-05-04T21:42:40.817Z,14.20
2018-05-04T21:45:08.244Z,14.20
2018-05-04T21:47:35.685Z,14.10
2018-05-04T21:50:03.139Z,14.10
2018-05-04T21:52:30.569Z,14.10
2018-05-04T21:54:58.031Z,14.10
2018-05-04T21:57:25.470Z,14.00
2018-05-04T21:59:53.685Z,14.00
2018-05-04T22:02:21.178Z,13.90
2018-05-04T22:04:48.651Z,13.90
2018-05-04T22:07:16.067Z,13.80
2018-05-04T22:09:43.521Z,13.80
2018-05-04T22:12:10.973Z,13.80
2018-05-04T22:14:38.421Z,13.80
2018-05-04T22:17:05.873Z,13.80
2018-05-04T22:19:33.318Z,13.70
2018-05-04T22:22:00.759Z,13.70
2018-05-04T22:24:28.205Z,13.70
2018-05-04T22:26:55.658Z,13.70
2018-05-04T22:29:23.096Z,13.60
2018-05-04T22:31:51.465Z,13.60
2018-05-04T22:34:19.717Z,13.60
2018-05-04T22:36:47.171Z,13.60
2018-05-04T22:39:15.377Z,13.60
2018-05-04T22:41:43.590Z,13.60
2018-05-04T22:44:11.029Z,13.60
2018-05-04T22:46:38.544Z,13.60
2018-05-04T22:49:05.928Z,13.60
2018-05-04T22:51:34.157Z,13.50
2018-05-04T22:54:01.593Z,13.50
2018-05-04T22:56:29.083Z,13.50
2018-05-04T22:58:56.476Z,13.50
2018-05-04T23:01:24.703Z,13.40
2018-05-04T23:03:52.153Z,13.40
2018-05-04T23:06:19.600Z,13.40
2018-05-04T23:08:47.045Z,13.40
2018-05-04T23:11:15.275Z,13.30
2018-05-04T23:13:43.725Z,13.20
2018-05-04T23:16:11.172Z,13.20
2018-05-04T23:18:38.616Z,13.20
2018-05-04T23:21:06.142Z,13.20
2018-05-04T23:23:33.517Z,13.10
2018-05-04T23:26:00.965Z,13.10
2018-05-04T23:28:28.429Z,13.00
2018-05-04T23:30:55.881Z,13.00
2018-05-04T23:33:23.340Z,13.00
2018-05-04T23:35:50.790Z,13.00
2018-05-04T23:38:18.996Z,13.00
2018-05-04T23:40:46.435Z,13.00
2018-05-04T23:43:13.885Z,13.00
2018-05-04T23:45:41.325Z,13.00
2018-05-04T23:48:08.784Z,13.00
2018-05-04T23:50:36.236Z,13.00
2018-05-04T23:53:03.687Z,13.00
2018-05-04T23:55:31.123Z,12.90
2018-05-04T23:57:58.574Z,13.00
